Portland, Oregon
Current Conditions -  °F | °C
As of 10:53 AM on Friday 28 Nov 2014 (Local Time) from KPDX Reporting Station
Light Rain Light Rain  
Wind Chill: 54°   Ceiling: 5000
Heat Index: 54°   Visibility: 7mi
Dew Point: 51°   Wind: 17mph
Humidity: 90%   Direction: 200°SSW
Pressure: 29.6"   Gusts: 25mph
Location:  45.51°N, 122.67°W
Report Text: KPDX 281853Z 20015G22KT 7SM -RA FEW017 BKN050 OVC075 12/11 A2960 RMK AO2 PK WND 19029/1823 SLP022 P0005 T01220106
Loading
Personal Weather Stations






























Interactive Weather Map New forecast layout! Learn more

10-Day Weather Forecast

Advertisements
Track Severe Weather on mobile